createdAt,value
2019-03-31T00:00:06.852Z,121.50
2019-03-31T00:02:36.032Z,117.67
2019-03-31T00:05:05.568Z,119.90
2019-03-31T00:07:34.747Z,125.27
2019-03-31T00:10:06.676Z,128.87
2019-03-31T00:12:35.957Z,130.07
2019-03-31T00:15:07.087Z,122.27
2019-03-31T00:17:36.265Z,122.20
2019-03-31T00:20:07.194Z,123.13
2019-03-31T00:22:36.387Z,123.70
2019-03-31T00:25:06.438Z,128.23
2019-03-31T00:27:35.631Z,115.63
2019-03-31T00:30:06.032Z,124.97
2019-03-31T00:32:35.264Z,118.93
2019-03-31T00:35:04.972Z,115.07
2019-03-31T00:37:34.181Z,134.03
2019-03-31T00:40:04.538Z,127.53
2019-03-31T00:42:33.727Z,121.57
2019-03-31T00:45:02.916Z,124.93
2019-03-31T00:47:32.106Z,127.07
2019-03-31T00:50:01.316Z,129.80
2019-03-31T00:52:30.512Z,128.70
2019-03-31T00:54:59.696Z,124.93
2019-03-31T00:57:28.882Z,122.37
2019-03-31T00:59:58.074Z,128.53
2019-03-31T01:02:31.602Z,116.73
2019-03-31T01:05:01.042Z,123.90
2019-03-31T01:07:30.600Z,122.43
2019-03-31T01:09:59.971Z,131.03
2019-03-31T01:12:29.487Z,122.20
2019-03-31T01:14:58.661Z,130.73
2019-03-31T01:17:28.115Z,121.23
2019-03-31T01:19:58.957Z,115.37
2019-03-31T01:22:28.151Z,135.87
2019-03-31T01:24:57.340Z,120.77
2019-03-31T01:27:26.717Z,129.97
2019-03-31T01:29:55.976Z,115.83
2019-03-31T01:32:25.266Z,123.30
2019-03-31T01:34:54.519Z,129.70
2019-03-31T01:37:23.700Z,120.97
2019-03-31T01:39:53.467Z,122.47
2019-03-31T01:42:22.662Z,122.67
2019-03-31T01:44:51.866Z,115.73
2019-03-31T01:47:21.063Z,131.73
2019-03-31T01:49:50.317Z,131.20
2019-03-31T01:52:19.596Z,131.67
2019-03-31T01:54:48.802Z,127.57
2019-03-31T01:57:18.034Z,377.33
2019-03-31T01:59:47.224Z,190.00
2019-03-31T02:02:18.058Z,127.07
2019-03-31T02:04:47.252Z,112.50
2019-03-31T02:07:16.442Z,112.27
2019-03-31T02:09:45.636Z,118.37
2019-03-31T02:12:14.880Z,116.20
2019-03-31T02:14:44.095Z,126.53
2019-03-31T02:17:13.281Z,119.60
2019-03-31T02:19:42.498Z,119.93
2019-03-31T02:22:11.770Z,118.80
2019-03-31T02:24:40.907Z,113.33
2019-03-31T02:27:10.143Z,117.33
2019-03-31T02:29:39.339Z,116.07
2019-03-31T02:32:22.527Z,109.10
2019-03-31T02:34:39.358Z,102.07
2019-03-31T02:37:08.545Z,102.43
2019-03-31T02:39:39.253Z,111.27
2019-03-31T02:42:08.462Z,102.40
2019-03-31T02:44:42.011Z,108.73
2019-03-31T02:47:11.277Z,99.37
2019-03-31T02:49:40.467Z,96.97
2019-03-31T02:52:09.649Z,100.23
2019-03-31T02:54:38.846Z,101.33
2019-03-31T02:57:08.615Z,99.43
2019-03-31T02:59:38.362Z,94.50
2019-03-31T03:02:08.972Z,100.27
2019-03-31T03:04:41.005Z,89.97
2019-03-31T03:07:12.948Z,97.60
2019-03-31T03:09:48.310Z,94.07
2019-03-31T03:12:22.580Z,87.40
2019-03-31T03:14:54.432Z,85.13
2019-03-31T03:17:23.610Z,86.03
2019-03-31T03:19:52.814Z,90.07
2019-03-31T03:22:21.997Z,80.57
2019-03-31T03:24:51.254Z,80.37
2019-03-31T03:27:20.446Z,71.57
2019-03-31T03:29:49.624Z,74.33
2019-03-31T03:32:18.805Z,72.63
2019-03-31T03:34:48.003Z,67.83
2019-03-31T03:37:17.198Z,63.07
2019-03-31T03:39:46.393Z,66.03
2019-03-31T03:42:15.596Z,54.63
2019-03-31T03:44:44.772Z,61.27
2019-03-31T03:47:13.991Z,54.37
2019-03-31T03:49:43.173Z,46.63
2019-03-31T03:52:12.394Z,50.00
2019-03-31T03:54:41.612Z,49.23
2019-03-31T03:57:10.848Z,40.47
2019-03-31T03:59:40.096Z,40.90
2019-03-31T04:02:09.330Z,37.77
2019-03-31T04:04:38.464Z,37.27
2019-03-31T04:07:07.667Z,37.17
2019-03-31T04:09:36.820Z,37.77
2019-03-31T04:12:06.009Z,37.70
2019-03-31T04:14:35.198Z,33.70
2019-03-31T04:17:04.399Z,27.83
2019-03-31T04:19:33.573Z,36.43
2019-03-31T04:22:02.769Z,34.30
2019-03-31T04:24:33.599Z,29.30
2019-03-31T04:27:02.794Z,24.10
2019-03-31T04:29:31.972Z,26.40
2019-03-31T04:32:01.187Z,28.07
2019-03-31T04:34:30.383Z,30.97
2019-03-31T04:36:59.752Z,29.87
2019-03-31T04:39:28.951Z,31.63
2019-03-31T04:41:58.142Z,31.47
2019-03-31T04:44:27.349Z,28.63
2019-03-31T04:46:56.547Z,27.87
2019-03-31T04:49:25.756Z,27.83
2019-03-31T04:51:54.928Z,26.00
2019-03-31T04:54:24.118Z,30.53
2019-03-31T04:56:53.319Z,28.33
2019-03-31T04:59:22.502Z,28.40
2019-03-31T05:01:51.720Z,25.93
2019-03-31T05:04:20.913Z,25.30
2019-03-31T05:06:50.114Z,24.80
2019-03-31T05:09:19.624Z,20.70
2019-03-31T05:11:48.804Z,25.60
2019-03-31T05:14:18.016Z,26.80
2019-03-31T05:16:47.200Z,26.40
2019-03-31T05:19:16.387Z,25.73
2019-03-31T05:21:45.565Z,31.20
2019-03-31T05:24:14.754Z,24.83
2019-03-31T05:26:43.957Z,29.30
2019-03-31T05:29:13.137Z,29.87
2019-03-31T05:31:42.331Z,30.00
2019-03-31T05:34:18.849Z,30.13
2019-03-31T05:36:42.401Z,28.73
2019-03-31T05:39:11.573Z,29.53
2019-03-31T05:41:40.752Z,31.50
2019-03-31T05:44:09.955Z,27.87
2019-03-31T05:46:39.219Z,28.57
2019-03-31T05:49:08.390Z,28.57
2019-03-31T05:51:37.584Z,26.83
2019-03-31T05:54:06.784Z,24.93
2019-03-31T05:56:36.005Z,22.93
2019-03-31T05:59:05.259Z,29.13
2019-03-31T06:01:34.431Z,21.63
2019-03-31T06:04:03.611Z,25.57
2019-03-31T06:06:32.797Z,20.70
2019-03-31T06:09:02.002Z,24.60
2019-03-31T06:11:31.178Z,18.53
2019-03-31T06:14:00.383Z,17.50
2019-03-31T06:16:29.607Z,25.30
2019-03-31T06:18:58.803Z,25.80
2019-03-31T06:21:29.278Z,23.73
2019-03-31T06:23:58.699Z,21.57
2019-03-31T06:26:27.896Z,23.00
2019-03-31T06:28:57.097Z,26.07
2019-03-31T06:31:26.277Z,24.90
2019-03-31T06:33:55.471Z,26.40
2019-03-31T06:36:24.675Z,23.20
2019-03-31T06:38:53.894Z,31.10
2019-03-31T06:41:23.084Z,22.43
2019-03-31T06:43:52.263Z,25.53
2019-03-31T06:46:21.477Z,29.13
2019-03-31T06:48:50.666Z,27.20
2019-03-31T06:51:19.865Z,26.07
2019-03-31T06:53:49.034Z,15.37
2019-03-31T06:56:18.206Z,20.07
2019-03-31T06:58:47.397Z,21.93
2019-03-31T07:01:16.583Z,23.83
2019-03-31T07:03:45.758Z,26.50
2019-03-31T07:06:16.759Z,22.73
2019-03-31T07:08:45.873Z,25.53
2019-03-31T07:11:15.100Z,22.63
2019-03-31T07:13:44.289Z,22.93
2019-03-31T07:16:13.473Z,16.30
2019-03-31T07:18:42.918Z,23.80
2019-03-31T07:21:12.097Z,20.63
2019-03-31T07:23:41.316Z,18.43
2019-03-31T07:26:10.501Z,21.27
2019-03-31T07:28:39.682Z,18.70
2019-03-31T07:31:08.875Z,20.67
2019-03-31T07:33:38.061Z,18.53
2019-03-31T07:36:07.253Z,26.60
2019-03-31T07:38:39.132Z,21.87
2019-03-31T07:41:12.808Z,15.37
2019-03-31T07:43:38.202Z,17.20
2019-03-31T07:46:07.387Z,20.57
2019-03-31T07:48:36.581Z,17.93
2019-03-31T07:51:05.771Z,16.93
2019-03-31T07:53:34.942Z,18.63
2019-03-31T07:56:04.126Z,18.03
2019-03-31T07:58:33.302Z,17.00
2019-03-31T08:01:02.503Z,18.97
2019-03-31T08:03:31.674Z,18.17
2019-03-31T08:06:00.856Z,19.50
2019-03-31T08:08:30.139Z,18.47
2019-03-31T08:10:59.322Z,19.30
2019-03-31T08:13:28.447Z,15.37
2019-03-31T08:15:57.621Z,14.10
2019-03-31T08:18:26.800Z,12.30
2019-03-31T08:20:56.011Z,12.10
2019-03-31T08:23:25.203Z,15.90
2019-03-31T08:25:54.401Z,14.10
2019-03-31T08:28:25.030Z,11.87
2019-03-31T08:30:54.395Z,13.87
2019-03-31T08:33:23.580Z,13.50
2019-03-31T08:35:52.757Z,12.27
2019-03-31T08:38:24.392Z,13.23
2019-03-31T08:40:52.825Z,13.00
2019-03-31T08:43:22.014Z,12.17
2019-03-31T08:45:51.194Z,13.53
2019-03-31T08:48:20.413Z,10.30
2019-03-31T08:50:49.577Z,10.60
2019-03-31T08:53:18.767Z,10.47
2019-03-31T08:55:48.005Z,12.90
2019-03-31T08:58:17.180Z,13.50
2019-03-31T09:00:48.036Z,10.70
2019-03-31T09:03:17.239Z,8.93
2019-03-31T09:06:00.641Z,10.67
2019-03-31T09:08:17.299Z,9.43
2019-03-31T09:10:46.478Z,5.53
2019-03-31T09:13:15.664Z,5.70
2019-03-31T09:15:44.822Z,9.27
2019-03-31T09:18:14.007Z,6.50
2019-03-31T09:20:43.169Z,8.00
2019-03-31T09:23:12.414Z,6.07
2019-03-31T09:25:41.603Z,5.63
2019-03-31T09:28:10.799Z,5.73
2019-03-31T09:30:39.982Z,4.67
2019-03-31T09:33:09.177Z,4.20
2019-03-31T09:35:38.351Z,7.53
2019-03-31T09:38:07.533Z,5.33
2019-03-31T09:40:36.705Z,6.47
2019-03-31T09:43:05.898Z,3.27
2019-03-31T09:45:35.122Z,5.83
2019-03-31T09:48:04.425Z,3.73
2019-03-31T09:50:33.610Z,6.17
2019-03-31T09:53:02.793Z,4.83
2019-03-31T09:55:31.966Z,5.43
2019-03-31T09:58:01.175Z,3.23
2019-03-31T10:00:40.169Z,3.20
2019-03-31T10:03:09.441Z,5.30
2019-03-31T10:05:38.661Z,3.27
2019-03-31T10:08:07.963Z,4.40
2019-03-31T10:10:37.207Z,8.13
2019-03-31T10:13:06.409Z,7.07
2019-03-31T10:15:35.624Z,6.50
2019-03-31T10:18:04.889Z,5.63
2019-03-31T10:20:34.195Z,5.43
2019-03-31T10:23:03.458Z,6.77
2019-03-31T10:25:32.717Z,5.57
2019-03-31T10:28:01.899Z,5.47
2019-03-31T10:30:33.665Z,11.73
2019-03-31T10:33:02.930Z,9.10
2019-03-31T10:35:32.116Z,4.20
2019-03-31T10:38:01.469Z,5.13
2019-03-31T10:40:30.649Z,6.77
2019-03-31T10:42:59.897Z,7.83
2019-03-31T10:45:29.173Z,8.50
2019-03-31T10:47:58.362Z,5.23
2019-03-31T10:50:27.623Z,6.97
2019-03-31T10:52:56.807Z,9.67
2019-03-31T10:55:26.009Z,7.67
2019-03-31T10:57:55.328Z,6.13
2019-03-31T11:00:30.809Z,10.90
2019-03-31T11:03:03.265Z,5.10
2019-03-31T11:05:32.486Z,11.67
2019-03-31T11:08:01.686Z,5.23
2019-03-31T11:10:30.987Z,8.40
2019-03-31T11:13:00.173Z,8.67
2019-03-31T11:15:29.422Z,8.77
2019-03-31T11:17:58.617Z,8.10
2019-03-31T11:20:27.852Z,10.93
2019-03-31T11:23:01.380Z,11.87
2019-03-31T11:25:30.559Z,5.57
2019-03-31T11:27:59.744Z,10.40
2019-03-31T11:30:28.924Z,8.60
2019-03-31T11:32:58.102Z,9.20
2019-03-31T11:35:27.309Z,7.97
2019-03-31T11:37:56.519Z,5.33
2019-03-31T11:40:25.708Z,14.90
2019-03-31T11:42:54.897Z,8.03
2019-03-31T11:45:24.189Z,5.47
2019-03-31T11:47:53.375Z,8.83
2019-03-31T11:50:22.673Z,8.87
2019-03-31T11:52:51.865Z,10.07
2019-03-31T11:55:21.094Z,5.57
2019-03-31T11:57:50.270Z,16.10
2019-03-31T12:00:21.205Z,12.77
2019-03-31T12:02:50.381Z,4.87
2019-03-31T12:05:19.568Z,9.67
2019-03-31T12:07:48.813Z,6.37
2019-03-31T12:10:19.765Z,7.50
2019-03-31T12:12:48.931Z,11.90
2019-03-31T12:15:18.130Z,8.10
2019-03-31T12:17:47.316Z,5.53
2019-03-31T12:20:16.784Z,6.73
2019-03-31T12:22:45.934Z,8.37
2019-03-31T12:25:15.271Z,9.50
2019-03-31T12:27:44.472Z,12.63
2019-03-31T12:30:17.245Z,7.40
2019-03-31T12:32:46.439Z,12.60
2019-03-31T12:35:34.981Z,7.17
2019-03-31T12:38:04.283Z,7.83
2019-03-31T12:40:35.983Z,6.50
2019-03-31T12:43:05.544Z,7.57
2019-03-31T12:45:34.833Z,10.23
2019-03-31T12:48:04.126Z,9.77
2019-03-31T12:50:33.321Z,8.53
2019-03-31T12:53:02.582Z,9.00
2019-03-31T12:55:31.803Z,8.93
2019-03-31T12:58:01.021Z,9.93
2019-03-31T13:00:30.269Z,8.13
2019-03-31T13:03:01.146Z,9.10
2019-03-31T13:05:30.302Z,5.50
2019-03-31T13:07:59.491Z,11.70
2019-03-31T13:10:28.680Z,7.43
2019-03-31T13:12:57.870Z,11.43
2019-03-31T13:15:27.092Z,9.90
2019-03-31T13:17:56.270Z,5.60
2019-03-31T13:20:25.466Z,9.57
2019-03-31T13:22:55.286Z,12.47
2019-03-31T13:25:26.005Z,10.90
2019-03-31T13:27:55.185Z,6.10
2019-03-31T13:30:24.382Z,15.93
2019-03-31T13:32:53.664Z,6.27
2019-03-31T13:35:22.918Z,9.40
2019-03-31T13:37:52.131Z,9.33
2019-03-31T13:40:21.443Z,11.20
2019-03-31T13:42:50.732Z,5.17
2019-03-31T13:45:19.902Z,12.00
2019-03-31T13:47:49.144Z,9.97
2019-03-31T13:50:18.651Z,6.80
2019-03-31T13:52:47.848Z,6.03
2019-03-31T13:55:17.114Z,7.53
2019-03-31T13:57:47.736Z,7.30
2019-03-31T14:00:25.403Z,9.60
2019-03-31T14:02:51.165Z,12.23
2019-03-31T14:05:20.342Z,11.20
2019-03-31T14:07:49.580Z,10.20
2019-03-31T14:10:18.734Z,7.60
2019-03-31T14:12:47.911Z,14.77
2019-03-31T14:15:19.315Z,7.47
2019-03-31T14:17:47.984Z,9.67
2019-03-31T14:20:17.244Z,9.07
2019-03-31T14:22:46.414Z,7.47
2019-03-31T14:25:16.036Z,12.03
2019-03-31T14:27:45.298Z,12.53
2019-03-31T14:30:14.544Z,8.57
2019-03-31T14:32:43.912Z,13.57
2019-03-31T14:35:13.171Z,6.67
2019-03-31T14:37:42.432Z,8.43
2019-03-31T14:40:11.799Z,14.27
2019-03-31T14:42:40.999Z,10.13
2019-03-31T14:45:13.223Z,8.67
2019-03-31T14:47:42.403Z,8.37
2019-03-31T14:50:14.628Z,6.27
2019-03-31T14:52:43.801Z,7.43
2019-03-31T14:55:13.064Z,9.63
2019-03-31T14:57:42.260Z,9.53
2019-03-31T15:00:15.087Z,9.53
2019-03-31T15:02:42.664Z,9.03
2019-03-31T15:05:11.830Z,7.20
2019-03-31T15:07:41.015Z,7.13
2019-03-31T15:10:10.280Z,11.43
2019-03-31T15:12:39.463Z,10.93
2019-03-31T15:15:08.717Z,7.70
2019-03-31T15:17:37.895Z,8.37
2019-03-31T15:20:07.354Z,6.57
2019-03-31T15:22:36.586Z,6.13
2019-03-31T15:25:06.716Z,10.50
2019-03-31T15:27:35.914Z,10.77
2019-03-31T15:30:08.362Z,3.33
2019-03-31T15:32:37.573Z,7.40
2019-03-31T15:35:07.850Z,9.20
2019-03-31T15:37:37.048Z,10.87
2019-03-31T15:40:07.926Z,11.63
2019-03-31T15:42:37.118Z,9.30
2019-03-31T15:45:06.726Z,7.30
2019-03-31T15:47:35.931Z,9.87
2019-03-31T15:50:06.356Z,8.60
2019-03-31T15:52:35.524Z,9.13
2019-03-31T15:55:06.632Z,5.87
2019-03-31T15:57:35.888Z,12.43
2019-03-31T16:00:07.407Z,11.97
2019-03-31T16:02:36.593Z,10.63
2019-03-31T16:05:08.306Z,11.30
2019-03-31T16:07:37.551Z,10.30
2019-03-31T16:10:08.878Z,4.43
2019-03-31T16:12:38.086Z,5.53
2019-03-31T16:15:07.979Z,9.23
2019-03-31T16:17:37.176Z,8.07
2019-03-31T16:20:06.813Z,7.27
2019-03-31T16:22:35.978Z,7.37
2019-03-31T16:25:11.161Z,11.70
2019-03-31T16:27:40.335Z,4.20
2019-03-31T16:30:09.684Z,10.63
2019-03-31T16:32:38.884Z,5.77
2019-03-31T16:35:08.152Z,7.70
2019-03-31T16:37:37.334Z,8.30
2019-03-31T16:40:07.385Z,10.37
2019-03-31T16:42:36.582Z,7.77
2019-03-31T16:45:07.712Z,7.40
2019-03-31T16:47:37.172Z,9.73
2019-03-31T16:50:07.200Z,6.80
2019-03-31T16:52:36.409Z,8.23
2019-03-31T16:55:06.363Z,9.73
2019-03-31T16:57:35.598Z,12.23
2019-03-31T17:00:06.608Z,5.37
2019-03-31T17:02:35.805Z,8.13
2019-03-31T17:05:21.091Z,6.60
2019-03-31T17:07:38.300Z,6.73
2019-03-31T17:10:09.453Z,11.73
2019-03-31T17:12:38.627Z,7.03
2019-03-31T17:15:08.698Z,8.30
2019-03-31T17:17:37.879Z,5.23
2019-03-31T17:20:08.115Z,9.60
2019-03-31T17:22:37.305Z,5.90
2019-03-31T17:25:06.812Z,7.03
2019-03-31T17:27:36.004Z,4.20
2019-03-31T17:30:06.333Z,3.80
2019-03-31T17:32:35.503Z,3.83
2019-03-31T17:35:05.047Z,5.53
2019-03-31T17:37:34.251Z,5.43
2019-03-31T17:40:06.403Z,6.83
2019-03-31T17:42:35.954Z,7.93
2019-03-31T17:45:08.406Z,7.43
2019-03-31T17:47:37.770Z,11.33
2019-03-31T17:50:07.222Z,5.77
2019-03-31T17:52:36.419Z,4.30
2019-03-31T17:55:06.215Z,8.30
2019-03-31T17:57:35.396Z,8.57
2019-03-31T18:00:08.328Z,4.87
2019-03-31T18:02:37.500Z,8.30
2019-03-31T18:05:08.253Z,6.60
2019-03-31T18:07:37.431Z,7.90
2019-03-31T18:10:20.138Z,6.87
2019-03-31T18:12:38.728Z,5.47
2019-03-31T18:15:07.971Z,5.40
2019-03-31T18:17:37.162Z,4.63
2019-03-31T18:20:06.870Z,4.77
2019-03-31T18:22:36.050Z,8.67
2019-03-31T18:25:07.471Z,5.23
2019-03-31T18:27:36.658Z,6.73
2019-03-31T18:30:06.790Z,7.23
2019-03-31T18:32:35.994Z,6.23
2019-03-31T18:35:06.974Z,5.60
2019-03-31T18:37:36.154Z,5.23
2019-03-31T18:40:07.251Z,6.83
2019-03-31T18:42:36.511Z,6.77
2019-03-31T18:45:07.136Z,7.93
2019-03-31T18:47:36.268Z,8.83
2019-03-31T18:50:06.795Z,7.83
2019-03-31T18:52:36.074Z,5.60
2019-03-31T18:55:07.861Z,7.53
2019-03-31T18:57:38.695Z,8.73
2019-03-31T19:00:27.374Z,13.87
2019-03-31T19:02:58.187Z,8.10
2019-03-31T19:05:31.959Z,9.57
2019-03-31T19:08:14.788Z,6.57
2019-03-31T19:11:00.596Z,7.57
2019-03-31T19:13:37.289Z,7.80
2019-03-31T19:16:16.825Z,7.43
2019-03-31T19:18:50.575Z,4.87
2019-03-31T19:21:21.761Z,6.53
2019-03-31T19:23:55.408Z,8.40
2019-03-31T19:26:48.663Z,7.70
2019-03-31T19:29:31.418Z,8.57
2019-03-31T19:32:02.252Z,8.67
2019-03-31T19:34:47.888Z,6.07
2019-03-31T19:37:21.726Z,7.20
2019-03-31T19:39:55.356Z,11.53
2019-03-31T19:42:38.155Z,5.87
2019-03-31T19:45:20.999Z,7.10
2019-03-31T19:48:08.182Z,8.00
2019-03-31T19:50:39.069Z,7.20
2019-03-31T19:53:15.981Z,4.67
2019-03-31T19:56:07.692Z,6.90
2019-03-31T19:58:35.299Z,7.87
2019-03-31T20:01:11.639Z,11.80
2019-03-31T20:03:42.493Z,8.37
2019-03-31T20:06:15.960Z,3.27
2019-03-31T20:08:55.739Z,6.53
2019-03-31T20:11:26.578Z,12.23
2019-03-31T20:14:06.313Z,8.03
2019-03-31T20:16:49.313Z,7.30
2019-03-31T20:19:22.677Z,6.17
2019-03-31T20:22:02.426Z,6.40
2019-03-31T20:24:33.236Z,9.90
2019-03-31T20:27:06.786Z,11.43
2019-03-31T20:29:37.602Z,9.00
2019-03-31T20:32:08.435Z,8.57
2019-03-31T20:34:42.219Z,6.77
2019-03-31T20:37:25.197Z,8.47
2019-03-31T20:40:01.589Z,9.13
2019-03-31T20:42:38.292Z,11.00
2019-03-31T20:45:08.326Z,16.67
2019-03-31T20:47:37.535Z,6.57
2019-03-31T20:50:07.290Z,12.67
2019-03-31T20:52:36.468Z,4.83
2019-03-31T20:55:16.065Z,10.43
2019-03-31T20:57:37.180Z,9.20
2019-03-31T21:00:08.102Z,5.93
2019-03-31T21:02:37.324Z,6.63
2019-03-31T21:05:06.632Z,10.47
2019-03-31T21:07:35.816Z,12.87
2019-03-31T21:10:06.485Z,5.33
2019-03-31T21:12:35.659Z,7.83
2019-03-31T21:15:06.777Z,10.23
2019-03-31T21:17:35.986Z,7.57
2019-03-31T21:20:06.349Z,10.30
2019-03-31T21:22:35.510Z,6.50
2019-03-31T21:25:06.156Z,3.67
2019-03-31T21:27:35.335Z,5.67
2019-03-31T21:30:06.461Z,10.73
2019-03-31T21:32:35.652Z,3.80
2019-03-31T21:35:06.489Z,9.13
2019-03-31T21:37:35.750Z,7.27
2019-03-31T21:40:07.008Z,11.27
2019-03-31T21:42:36.234Z,6.03
2019-03-31T21:45:06.789Z,12.60
2019-03-31T21:47:35.968Z,9.37
2019-03-31T21:50:06.787Z,9.67
2019-03-31T21:52:36.039Z,8.23
2019-03-31T21:55:06.137Z,7.87
2019-03-31T21:57:35.337Z,6.30
2019-03-31T22:00:12.162Z,8.50
2019-03-31T22:02:41.468Z,9.50
2019-03-31T22:05:10.909Z,6.63
2019-03-31T22:07:40.069Z,4.10
2019-03-31T22:10:09.774Z,8.97
2019-03-31T22:12:38.947Z,8.27
2019-03-31T22:15:08.454Z,6.53
2019-03-31T22:17:37.632Z,10.77
2019-03-31T22:20:08.052Z,7.23
2019-03-31T22:22:37.219Z,8.80
2019-03-31T22:25:07.190Z,9.47
2019-03-31T22:27:36.578Z,12.47
2019-03-31T22:30:07.354Z,8.20
2019-03-31T22:32:36.560Z,11.20
2019-03-31T22:35:06.210Z,7.97
2019-03-31T22:37:35.388Z,5.73
2019-03-31T22:40:06.627Z,10.78
2019-03-31T22:42:35.815Z,12.50
2019-03-31T22:45:06.635Z,9.73
2019-03-31T22:47:35.838Z,6.20
2019-03-31T22:50:06.157Z,14.97
2019-03-31T22:52:35.341Z,4.45
2019-03-31T22:55:06.294Z,6.92
2019-03-31T22:57:35.480Z,8.43
2019-03-31T23:00:05.816Z,4.83
2019-03-31T23:02:35.001Z,7.25
2019-03-31T23:05:04.817Z,9.15
2019-03-31T23:07:34.015Z,4.70
2019-03-31T23:10:03.261Z,7.47
2019-03-31T23:12:32.476Z,8.73
2019-03-31T23:15:01.697Z,12.95
2019-03-31T23:17:30.902Z,9.10
2019-03-31T23:20:00.115Z,7.15
2019-03-31T23:22:29.284Z,9.75
2019-03-31T23:24:58.476Z,10.70
2019-03-31T23:27:27.650Z,4.47
2019-03-31T23:29:56.834Z,7.90
2019-03-31T23:32:26.033Z,4.62
2019-03-31T23:34:55.229Z,7.33
2019-03-31T23:37:24.422Z,6.28
2019-03-31T23:39:53.623Z,9.55
2019-03-31T23:42:22.867Z,7.25
2019-03-31T23:44:52.084Z,8.93
2019-03-31T23:47:21.163Z,9.45
2019-03-31T23:49:50.585Z,11.30
2019-03-31T23:52:19.765Z,8.33
2019-03-31T23:54:48.973Z,8.43
2019-03-31T23:57:18.182Z,5.97
2019-03-31T23:59:47.361Z,8.78
